sensor_id;sensor_type;location;lat;lon;timestamp;temperature;humidity
13123;DHT22;6627;50.920;12.050;2022-09-03T06:03:23;10.30;99.90
13123;DHT22;6627;50.920;12.050;2022-09-03T06:05:51;10.30;99.90
13123;DHT22;6627;50.920;12.050;2022-09-03T06:08:20;10.30;99.90
13123;DHT22;6627;50.920;12.050;2022-09-03T06:10:48;10.20;99.90
13123;DHT22;6627;50.920;12.050;2022-09-03T06:13:16;10.10;99.90
13123;DHT22;6627;50.920;12.050;2022-09-03T06:15:43;10.50;99.90
13123;DHT22;6627;50.920;12.050;2022-09-03T06:18:11;10.50;99.90
13123;DHT22;6627;50.920;12.050;2022-09-03T06:20:38;10.70;99.90
13123;DHT22;6627;50.920;12.050;2022-09-03T06:23:05;10.80;99.90
13123;DHT22;6627;50.920;12.050;2022-09-03T06:25:32;10.80;99.90
13123;DHT22;6627;50.920;12.050;2022-09-03T06:27:59;10.90;99.90
13123;DHT22;6627;50.920;12.050;2022-09-03T06:30:28;11.00;99.90
13123;DHT22;6627;50.920;12.050;2022-09-03T06:32:55;11.10;99.90
13123;DHT22;6627;50.920;12.050;2022-09-03T06:35:24;11.10;99.90
13123;DHT22;6627;50.920;12.050;2022-09-03T06:37:51;11.40;99.90
13123;DHT22;6627;50.920;12.050;2022-09-03T06:40:19;11.50;99.90
13123;DHT22;6627;50.920;12.050;2022-09-03T06:42:55;11.60;99.90
13123;DHT22;6627;50.920;12.050;2022-09-03T06:45:25;11.70;99.90
13123;DHT22;6627;50.920;12.050;2022-09-03T06:47:54;11.70;99.90
13123;DHT22;6627;50.920;12.050;2022-09-03T06:50:22;11.80;99.90
13123;DHT22;6627;50.920;12.050;2022-09-03T06:52:52;11.90;99.90
13123;DHT22;6627;50.920;12.050;2022-09-03T06:55:20;12.00;99.90
13123;DHT22;6627;50.920;12.050;2022-09-03T06:57:48;12.10;99.90
13123;DHT22;6627;50.920;12.050;2022-09-03T07:00:16;12.30;99.90
13123;DHT22;6627;50.920;12.050;2022-09-03T07:02:44;12.50;99.90
13123;DHT22;6627;50.920;12.050;2022-09-03T07:05:13;12.70;99.90
13123;DHT22;6627;50.920;12.050;2022-09-03T07:07:40;12.90;99.90
13123;DHT22;6627;50.920;12.050;2022-09-03T07:10:09;13.00;99.90
13123;DHT22;6627;50.920;12.050;2022-09-03T07:12:39;13.30;99.90
13123;DHT22;6627;50.920;12.050;2022-09-03T07:15:07;13.40;99.90
13123;DHT22;6627;50.920;12.050;2022-09-03T07:17:35;13.40;99.90
13123;DHT22;6627;50.920;12.050;2022-09-03T07:20:04;13.50;99.90
13123;DHT22;6627;50.920;12.050;2022-09-03T12:27:18;22.90;71.70
13123;DHT22;6627;50.920;12.050;2022-09-03T12:29:53;23.00;71.40
13123;DHT22;6627;50.920;12.050;2022-09-03T12:32:26;23.20;68.70
13123;DHT22;6627;50.920;12.050;2022-09-03T12:34:55;23.10;68.80
13123;DHT22;6627;50.920;12.050;2022-09-03T12:37:24;23.40;67.70
13123;DHT22;6627;50.920;12.050;2022-09-03T12:39:53;23.30;68.90
13123;DHT22;6627;50.920;12.050;2022-09-03T12:42:24;23.30;67.70
13123;DHT22;6627;50.920;12.050;2022-09-03T12:44:53;23.20;66.20
13123;DHT22;6627;50.920;12.050;2022-09-03T12:47:22;23.20;67.40
13123;DHT22;6627;50.920;12.050;2022-09-03T13:07:44;23.10;65.40
13123;DHT22;6627;50.920;12.050;2022-09-03T13:10:24;23.10;66.00
13123;DHT22;6627;50.920;12.050;2022-09-03T13:12:58;23.30;67.30
13123;DHT22;6627;50.920;12.050;2022-09-03T13:15:28;23.60;66.20
13123;DHT22;6627;50.920;12.050;2022-09-03T13:18:14;23.60;65.00
13123;DHT22;6627;50.920;12.050;2022-09-03T13:21:05;23.50;64.40
13123;DHT22;6627;50.920;12.050;2022-09-03T13:23:59;23.60;69.90
13123;DHT22;6627;50.920;12.050;2022-09-03T13:26:47;23.60;67.40
13123;DHT22;6627;50.920;12.050;2022-09-03T13:29:38;23.40;64.40
13123;DHT22;6627;50.920;12.050;2022-09-03T13:32:27;23.60;63.90
13123;DHT22;6627;50.920;12.050;2022-09-03T13:35:05;23.40;66.00
13123;DHT22;6627;50.920;12.050;2022-09-03T13:37:38;23.70;63.80
13123;DHT22;6627;50.920;12.050;2022-09-03T13:40:21;23.60;63.60
13123;DHT22;6627;50.920;12.050;2022-09-03T13:42:57;23.30;64.00
13123;DHT22;6627;50.920;12.050;2022-09-03T13:45:35;23.60;67.50
13123;DHT22;6627;50.920;12.050;2022-09-03T13:48:10;23.80;65.70
13123;DHT22;6627;50.920;12.050;2022-09-03T13:51:05;23.80;63.00
13123;DHT22;6627;50.920;12.050;2022-09-03T13:53:45;23.90;63.50
13123;DHT22;6627;50.920;12.050;2022-09-03T13:56:31;23.80;64.90
13123;DHT22;6627;50.920;12.050;2022-09-03T13:59:14;24.00;64.60
13123;DHT22;6627;50.920;12.050;2022-09-03T14:02:10;23.40;65.30
13123;DHT22;6627;50.920;12.050;2022-09-03T14:04:53;23.20;63.50
13123;DHT22;6627;50.920;12.050;2022-09-03T14:07:42;23.20;67.70
13123;DHT22;6627;50.920;12.050;2022-09-03T14:10:23;23.20;67.40
13123;DHT22;6627;50.920;12.050;2022-09-03T14:13:09;23.40;65.20
13123;DHT22;6627;50.920;12.050;2022-09-03T14:15:44;23.60;65.70
13123;DHT22;6627;50.920;12.050;2022-09-03T14:18:34;23.70;66.60
13123;DHT22;6627;50.920;12.050;2022-09-03T14:21:12;23.60;62.40
13123;DHT22;6627;50.920;12.050;2022-09-03T14:23:47;23.70;63.80
13123;DHT22;6627;50.920;12.050;2022-09-03T14:26:26;23.70;62.00
13123;DHT22;6627;50.920;12.050;2022-09-03T14:29:02;23.60;63.60
13123;DHT22;6627;50.920;12.050;2022-09-03T14:31:52;23.50;63.30
13123;DHT22;6627;50.920;12.050;2022-09-03T14:34:55;23.50;62.80
13123;DHT22;6627;50.920;12.050;2022-09-03T14:37:57;23.70;63.80
13123;DHT22;6627;50.920;12.050;2022-09-03T14:40:41;23.80;61.50
13123;DHT22;6627;50.920;12.050;2022-09-03T14:43:21;24.00;65.00
13123;DHT22;6627;50.920;12.050;2022-09-03T14:46:16;24.00;66.80
13123;DHT22;6627;50.920;12.050;2022-09-03T14:49:07;24.30;61.60
13123;DHT22;6627;50.920;12.050;2022-09-03T14:51:57;23.50;60.90
13123;DHT22;6627;50.920;12.050;2022-09-03T14:54:48;23.80;64.40
13123;DHT22;6627;50.920;12.050;2022-09-03T14:57:48;23.80;62.90
13123;DHT22;6627;50.920;12.050;2022-09-03T15:00:33;23.80;69.10
13123;DHT22;6627;50.920;12.050;2022-09-03T15:07:15;24.10;62.70
13123;DHT22;6627;50.920;12.050;2022-09-03T15:09:58;24.00;63.00
13123;DHT22;6627;50.920;12.050;2022-09-03T15:12:34;23.80;62.40
13123;DHT22;6627;50.920;12.050;2022-09-03T15:15:11;23.60;65.30
13123;DHT22;6627;50.920;12.050;2022-09-03T15:17:54;23.10;63.00
13123;DHT22;6627;50.920;12.050;2022-09-03T15:20:36;22.80;66.80
13123;DHT22;6627;50.920;12.050;2022-09-03T15:23:32;22.90;66.00
13123;DHT22;6627;50.920;12.050;2022-09-03T15:26:37;23.10;64.90
13123;DHT22;6627;50.920;12.050;2022-09-03T15:29:28;23.10;63.90
13123;DHT22;6627;50.920;12.050;2022-09-03T15:32:09;22.70;69.90
13123;DHT22;6627;50.920;12.050;2022-09-03T15:34:58;22.60;69.90
13123;DHT22;6627;50.920;12.050;2022-09-03T15:37:36;22.70;68.00
13123;DHT22;6627;50.920;12.050;2022-09-03T15:40:26;22.60;73.00
13123;DHT22;6627;50.920;12.050;2022-09-03T15:42:59;22.70;74.80
13123;DHT22;6627;50.920;12.050;2022-09-03T15:45:37;22.70;67.30
13123;DHT22;6627;50.920;12.050;2022-09-03T15:48:15;22.70;69.00
13123;DHT22;6627;50.920;12.050;2022-09-03T15:50:52;22.70;71.40
13123;DHT22;6627;50.920;12.050;2022-09-03T15:53:32;22.70;73.20
13123;DHT22;6627;50.920;12.050;2022-09-03T15:56:16;22.30;76.70
13123;DHT22;6627;50.920;12.050;2022-09-03T15:58:55;21.90;80.10
13123;DHT22;6627;50.920;12.050;2022-09-03T16:01:35;22.10;79.10
13123;DHT22;6627;50.920;12.050;2022-09-03T16:04:27;21.70;76.60
13123;DHT22;6627;50.920;12.050;2022-09-03T16:07:13;21.90;80.20
13123;DHT22;6627;50.920;12.050;2022-09-03T16:09:55;21.50;82.80
13123;DHT22;6627;50.920;12.050;2022-09-03T16:12:38;21.40;81.90
13123;DHT22;6627;50.920;12.050;2022-09-03T16:15:14;21.50;83.30
13123;DHT22;6627;50.920;12.050;2022-09-03T16:17:53;21.50;84.20
13123;DHT22;6627;50.920;12.050;2022-09-03T16:20:32;21.40;82.60
13123;DHT22;6627;50.920;12.050;2022-09-03T16:23:08;21.10;86.20
13123;DHT22;6627;50.920;12.050;2022-09-03T16:25:49;21.00;89.40
13123;DHT22;6627;50.920;12.050;2022-09-03T16:28:27;20.80;91.60
13123;DHT22;6627;50.920;12.050;2022-09-03T16:31:06;20.60;91.10
13123;DHT22;6627;50.920;12.050;2022-09-03T16:33:48;20.70;91.90
13123;DHT22;6627;50.920;12.050;2022-09-03T16:36:34;20.70;93.60
13123;DHT22;6627;50.920;12.050;2022-09-03T16:39:16;21.00;90.40
13123;DHT22;6627;50.920;12.050;2022-09-03T16:42:01;21.00;90.80
13123;DHT22;6627;50.920;12.050;2022-09-03T16:44:46;21.20;90.60
13123;DHT22;6627;50.920;12.050;2022-09-03T16:47:32;21.30;90.40
13123;DHT22;6627;50.920;12.050;2022-09-03T16:50:20;21.40;91.40
13123;DHT22;6627;50.920;12.050;2022-09-03T16:53:05;21.20;92.20
13123;DHT22;6627;50.920;12.050;2022-09-03T16:55:55;21.20;91.60
13123;DHT22;6627;50.920;12.050;2022-09-03T16:58:46;21.10;91.40
13123;DHT22;6627;50.920;12.050;2022-09-03T17:01:31;21.10;92.00
13123;DHT22;6627;50.920;12.050;2022-09-03T17:04:33;21.10;92.90
13123;DHT22;6627;50.920;12.050;2022-09-03T17:07:26;21.00;93.10
13123;DHT22;6627;50.920;12.050;2022-09-03T17:10:22;21.10;94.10
13123;DHT22;6627;50.920;12.050;2022-09-03T17:13:11;20.60;99.20
13123;DHT22;6627;50.920;12.050;2022-09-03T17:15:52;20.40;99.90
13123;DHT22;6627;50.920;12.050;2022-09-03T17:18:35;20.20;99.90
13123;DHT22;6627;50.920;12.050;2022-09-03T17:21:21;20.10;99.90
13123;DHT22;6627;50.920;12.050;2022-09-03T17:24:22;20.10;99.90
13123;DHT22;6627;50.920;12.050;2022-09-03T17:27:15;20.40;99.90
13123;DHT22;6627;50.920;12.050;2022-09-03T17:30:18;20.60;99.90
13123;DHT22;6627;50.920;12.050;2022-09-03T17:33:03;20.60;99.90
13123;DHT22;6627;50.920;12.050;2022-09-03T19:06:54;20.30;99.90
13123;DHT22;6627;50.920;12.050;2022-09-03T19:09:53;20.30;99.90
13123;DHT22;6627;50.920;12.050;2022-09-03T19:13:04;20.40;99.90
13123;DHT22;6627;50.920;12.050;2022-09-03T19:16:00;20.30;99.90
13123;DHT22;6627;50.920;12.050;2022-09-03T19:19:26;20.30;99.90
13123;DHT22;6627;50.920;12.050;2022-09-03T19:22:27;20.20;99.90
13123;DHT22;6627;50.920;12.050;2022-09-03T19:25:17;20.30;99.90
13123;DHT22;6627;50.920;12.050;2022-09-03T19:28:12;20.20;99.90
13123;DHT22;6627;50.920;12.050;2022-09-03T19:31:22;19.80;99.90
13123;DHT22;6627;50.920;12.050;2022-09-03T19:34:25;19.40;99.90
13123;DHT22;6627;50.920;12.050;2022-09-03T19:37:25;19.10;99.90
13123;DHT22;6627;50.920;12.050;2022-09-03T19:40:31;19.00;99.90
13123;DHT22;6627;50.920;12.050;2022-09-03T19:43:41;18.80;99.90
13123;DHT22;6627;50.920;12.050;2022-09-03T19:46:40;18.90;99.90
13123;DHT22;6627;50.920;12.050;2022-09-03T19:49:38;18.90;99.90
13123;DHT22;6627;50.920;12.050;2022-09-03T19:52:42;18.80;99.90
13123;DHT22;6627;50.920;12.050;2022-09-03T19:55:34;18.90;99.90
13123;DHT22;6627;50.920;12.050;2022-09-03T19:58:23;18.30;99.90
13123;DHT22;6627;50.920;12.050;2022-09-03T20:01:13;18.40;99.90
13123;DHT22;6627;50.920;12.050;2022-09-03T20:04:09;18.00;99.90
13123;DHT22;6627;50.920;12.050;2022-09-03T20:06:56;17.90;99.90
13123;DHT22;6627;50.920;12.050;2022-09-03T20:09:44;17.80;99.90
13123;DHT22;6627;50.920;12.050;2022-09-03T20:12:33;17.70;99.90
13123;DHT22;6627;50.920;12.050;2022-09-03T20:15:06;17.40;99.90
13123;DHT22;6627;50.920;12.050;2022-09-03T20:17:39;17.40;99.90
13123;DHT22;6627;50.920;12.050;2022-09-03T20:20:23;17.40;99.90
13123;DHT22;6627;50.920;12.050;2022-09-03T20:23:02;17.30;99.90
13123;DHT22;6627;50.920;12.050;2022-09-03T20:25:43;17.30;99.90
13123;DHT22;6627;50.920;12.050;2022-09-03T20:28:41;17.00;99.90
13123;DHT22;6627;50.920;12.050;2022-09-03T20:31:43;17.00;99.90
13123;DHT22;6627;50.920;12.050;2022-09-03T20:34:31;17.10;99.90
13123;DHT22;6627;50.920;12.050;2022-09-03T20:37:14;17.30;99.90
13123;DHT22;6627;50.920;12.050;2022-09-03T20:40:11;17.50;99.90
13123;DHT22;6627;50.920;12.050;2022-09-03T20:43:02;17.60;99.90
13123;DHT22;6627;50.920;12.050;2022-09-03T20:45:59;17.80;99.90
13123;DHT22;6627;50.920;12.050;2022-09-03T20:48:46;17.60;99.90
13123;DHT22;6627;50.920;12.050;2022-09-03T20:51:25;17.70;99.90
13123;DHT22;6627;50.920;12.050;2022-09-03T20:54:12;17.40;99.90
13123;DHT22;6627;50.920;12.050;2022-09-03T20:57:00;17.20;99.90
13123;DHT22;6627;50.920;12.050;2022-09-03T20:59:47;17.60;99.90
13123;DHT22;6627;50.920;12.050;2022-09-03T21:02:41;17.70;99.90
13123;DHT22;6627;50.920;12.050;2022-09-03T21:05:30;17.60;99.90
13123;DHT22;6627;50.920;12.050;2022-09-03T21:08:09;17.80;99.90
13123;DHT22;6627;50.920;12.050;2022-09-03T21:10:50;17.30;99.90
13123;DHT22;6627;50.920;12.050;2022-09-03T21:13:30;17.00;99.90
13123;DHT22;6627;50.920;12.050;2022-09-03T21:16:19;16.80;99.90
13123;DHT22;6627;50.920;12.050;2022-09-03T21:18:58;16.80;99.90
13123;DHT22;6627;50.920;12.050;2022-09-03T21:21:43;17.10;99.90
13123;DHT22;6627;50.920;12.050;2022-09-03T21:24:23;16.90;99.90
13123;DHT22;6627;50.920;12.050;2022-09-03T21:26:59;17.20;99.90
13123;DHT22;6627;50.920;12.050;2022-09-03T21:29:35;17.20;99.90
13123;DHT22;6627;50.920;12.050;2022-09-03T21:32:10;16.80;99.90
13123;DHT22;6627;50.920;12.050;2022-09-03T21:34:54;16.70;99.90
13123;DHT22;6627;50.920;12.050;2022-09-03T21:37:34;16.50;99.90
13123;DHT22;6627;50.920;12.050;2022-09-03T21:40:07;17.00;99.90
13123;DHT22;6627;50.920;12.050;2022-09-03T21:42:42;17.20;99.90
13123;DHT22;6627;50.920;12.050;2022-09-03T21:45:17;17.20;99.90
13123;DHT22;6627;50.920;12.050;2022-09-03T21:47:52;17.20;99.90
13123;DHT22;6627;50.920;12.050;2022-09-03T21:50:38;17.10;99.90
13123;DHT22;6627;50.920;12.050;2022-09-03T21:53:17;16.70;99.90
13123;DHT22;6627;50.920;12.050;2022-09-03T21:56:08;17.00;99.90
13123;DHT22;6627;50.920;12.050;2022-09-03T21:59:01;16.80;99.90
13123;DHT22;6627;50.920;12.050;2022-09-03T22:01:39;17.10;99.90
13123;DHT22;6627;50.920;12.050;2022-09-03T22:04:15;17.20;99.90
13123;DHT22;6627;50.920;12.050;2022-09-03T22:06:48;17.10;99.90
13123;DHT22;6627;50.920;12.050;2022-09-03T22:09:26;16.90;99.90
13123;DHT22;6627;50.920;12.050;2022-09-03T22:12:05;17.10;99.90
13123;DHT22;6627;50.920;12.050;2022-09-03T22:14:42;17.20;99.90
13123;DHT22;6627;50.920;12.050;2022-09-03T22:17:17;17.30;99.90
13123;DHT22;6627;50.920;12.050;2022-09-03T22:19:50;17.20;99.90
13123;DHT22;6627;50.920;12.050;2022-09-03T22:22:21;16.90;99.90
13123;DHT22;6627;50.920;12.050;2022-09-03T22:24:57;16.80;99.90
13123;DHT22;6627;50.920;12.050;2022-09-03T22:27:37;16.90;99.90
13123;DHT22;6627;50.920;12.050;2022-09-03T22:30:13;16.90;99.90
13123;DHT22;6627;50.920;12.050;2022-09-03T22:32:50;16.60;99.90
13123;DHT22;6627;50.920;12.050;2022-09-03T22:41:46;16.90;99.90
13123;DHT22;6627;50.920;12.050;2022-09-03T22:44:39;17.00;99.90
13123;DHT22;6627;50.920;12.050;2022-09-03T22:47:29;17.10;99.90
13123;DHT22;6627;50.920;12.050;2022-09-03T22:50:12;16.80;99.90
13123;DHT22;6627;50.920;12.050;2022-09-03T22:52:55;16.40;99.90
13123;DHT22;6627;50.920;12.050;2022-09-03T22:55:44;16.70;99.90
13123;DHT22;6627;50.920;12.050;2022-09-03T22:58:18;16.50;99.90
13123;DHT22;6627;50.920;12.050;2022-09-03T23:00:55;16.30;99.90
13123;DHT22;6627;50.920;12.050;2022-09-03T23:03:36;16.50;99.90
13123;DHT22;6627;50.920;12.050;2022-09-03T23:06:17;16.40;99.90
13123;DHT22;6627;50.920;12.050;2022-09-03T23:08:59;16.50;99.90
13123;DHT22;6627;50.920;12.050;2022-09-03T23:11:36;16.40;99.90
13123;DHT22;6627;50.920;12.050;2022-09-03T23:14:20;16.40;99.90
13123;DHT22;6627;50.920;12.050;2022-09-03T23:17:03;16.50;99.90
13123;DHT22;6627;50.920;12.050;2022-09-03T23:19:42;16.20;99.90
13123;DHT22;6627;50.920;12.050;2022-09-03T23:22:21;16.10;99.90
13123;DHT22;6627;50.920;12.050;2022-09-03T23:25:03;16.40;99.90
13123;DHT22;6627;50.920;12.050;2022-09-03T23:27:43;16.20;99.90
13123;DHT22;6627;50.920;12.050;2022-09-03T23:30:26;16.40;99.90
13123;DHT22;6627;50.920;12.050;2022-09-03T23:33:03;16.70;99.90
13123;DHT22;6627;50.920;12.050;2022-09-03T23:35:39;16.80;99.90
13123;DHT22;6627;50.920;12.050;2022-09-03T23:38:24;16.80;99.90
13123;DHT22;6627;50.920;12.050;2022-09-03T23:41:02;16.70;99.90
13123;DHT22;6627;50.920;12.050;2022-09-03T23:43:59;16.50;99.90
13123;DHT22;6627;50.920;12.050;2022-09-03T23:46:50;16.30;99.90
13123;DHT22;6627;50.920;12.050;2022-09-03T23:49:39;16.10;99.90
13123;DHT22;6627;50.920;12.050;2022-09-03T23:52:51;16.20;99.90
13123;DHT22;6627;50.920;12.050;2022-09-03T23:55:40;16.30;99.90
13123;DHT22;6627;50.920;12.050;2022-09-03T23:58:30;16.00;99.90
